Stations météo

réclame
Mon MeteoGroup
Comiso, Italie (16475): Température de l'air & dewpoint: 11.01.2018 08:00:00 - 17.01.2018 08:00:00 (CET)Comiso, Italie (16475): Vitesse du vent: 11.01.2018 08:00:00 - 17.01.2018 08:00:00 (CET)Comiso, Italie (16475): Direction du vent: 11.01.2018 08:00:00 - 17.01.2018 08:00:00 (CET)Comiso, Italie (16475): visibility: 11.01.2018 08:00:00 - 17.01.2018 08:00:00 (CET)
Date & Time tt [°C] td [°C] ff [km/h] ff [knt] dd vv [km]
17.01.2018 08:00:00 - - - - - -
17.01.2018 07:00:00 12,0 10,0 21 11 W 10
17.01.2018 06:00:00 - - - - - -
17.01.2018 05:00:00 - - - - - -
17.01.2018 04:00:00 - - - - - -
17.01.2018 03:00:00 - - - - - -
17.01.2018 02:00:00 - - - - - -
17.01.2018 01:00:00 - - - - - -
17.01.2018 00:00:00 - - - - - -
16.01.2018 23:00:00 12,0 9,0 13 7 W 10
16.01.2018 22:00:00 11,0 8,0 13 7 W 10
16.01.2018 21:00:00 11,0 8,0 9 5 W 10
16.01.2018 20:00:00 11,0 9,0 15 8 W 10
16.01.2018 19:00:00 12,0 10,0 16 9 W 10
16.01.2018 18:00:00 12,0 10,0 26 14 W 8
16.01.2018 17:00:00 13,0 11,0 28 15 W 10
16.01.2018 16:00:00 14,0 10,0 26 14 W 10
16.01.2018 15:00:00 15,0 9,0 28 15 W 10
16.01.2018 14:00:00 14,0 9,0 22 12 W 10
16.01.2018 13:00:00 14,0 10,0 22 12 W 10
16.01.2018 12:00:00 13,0 10,0 21 11 NW 10
16.01.2018 11:00:00 13,0 10,0 22 12 W 8
16.01.2018 10:00:00 12,0 10,0 11 6 WSW 5
16.01.2018 09:00:00 9,0 9,0 2 1 - 5
16.01.2018 08:00:00 6,0 6,0 4 2 SE 6
16.01.2018 07:00:00 5,0 4,0 5 3 E 6
16.01.2018 06:00:00 - - - - - -
16.01.2018 05:00:00 - - - - - -
16.01.2018 04:00:00 - - - - - -
16.01.2018 03:00:00 - - - - - -
16.01.2018 02:00:00 - - - - - -
16.01.2018 01:00:00 - - - - - -
16.01.2018 00:00:00 - - - - - -
15.01.2018 23:00:00 6,0 5,0 5 3 E 10
15.01.2018 22:00:00 6,0 5,0 5 3 E 10
15.01.2018 21:00:00 6,0 5,0 5 3 ESE 10
15.01.2018 20:00:00 6,0 5,0 5 3 E 10
15.01.2018 19:00:00 7,0 5,0 5 3 E 10
15.01.2018 18:00:00 10,0 8,0 8 4 SSW 10
15.01.2018 17:00:00 12,0 8,0 5 3 SW 10
15.01.2018 16:00:00 13,0 8,0 8 4 WNW 10
15.01.2018 15:00:00 14,0 7,0 15 8 WSW 10
15.01.2018 14:00:00 15,0 7,0 13 7 W 10
15.01.2018 13:00:00 14,0 7,0 15 8 W 10
15.01.2018 12:00:00 14,0 8,0 16 9 WSW 10
15.01.2018 11:00:00 13,0 8,0 9 5 SW 10
15.01.2018 10:00:00 12,0 9,0 4 2 - 10
15.01.2018 09:00:00 9,0 8,0 8 4 E 10
15.01.2018 08:00:00 6,0 5,0 5 3 E 10
15.01.2018 07:00:00 5,0 4,0 4 2 ESE 10
15.01.2018 06:00:00 - - - - - -
15.01.2018 05:00:00 - - - - - -
15.01.2018 04:00:00 - - - - - -
15.01.2018 03:00:00 - - - - - -
15.01.2018 02:00:00 - - - - - -
15.01.2018 01:00:00 - - - - - -
15.01.2018 00:00:00 - - - - - -
14.01.2018 23:00:00 9,0 7,0 8 4 SSE 10
14.01.2018 22:00:00 8,0 6,0 8 4 - 10
14.01.2018 21:00:00 7,0 6,0 5 3 ESE 10
14.01.2018 20:00:00 8,0 6,0 4 2 E 10
14.01.2018 19:00:00 11,0 8,0 2 1 - 10
14.01.2018 18:00:00 11,0 8,0 4 2 - 10
14.01.2018 17:00:00 12,0 7,0 5 3 SW 10
14.01.2018 16:00:00 13,0 7,0 11 6 WSW 10
14.01.2018 15:00:00 13,0 7,0 11 6 W 10
14.01.2018 14:00:00 13,0 6,0 13 7 W 10
14.01.2018 13:00:00 13,0 5,0 9 5 WNW 10
14.01.2018 12:00:00 13,0 6,0 8 4 WNW 10
14.01.2018 11:00:00 - - - - - -
14.01.2018 10:00:00 10,0 6,0 2 1 - 10
14.01.2018 09:00:00 8,0 6,0 2 1 - 10
14.01.2018 08:00:00 3,0 2,0 9 5 ENE 10
14.01.2018 07:00:00 2,0 2,0 5 3 ENE 10
14.01.2018 06:00:00 - - - - - -
14.01.2018 05:00:00 - - - - - -
14.01.2018 04:00:00 - - - - - -
14.01.2018 03:00:00 - - - - - -
14.01.2018 02:00:00 - - - - - -
14.01.2018 01:00:00 - - - - - -
14.01.2018 00:00:00 - - - - - -
13.01.2018 23:00:00 5,0 3,0 5 3 - 10
13.01.2018 22:00:00 4,0 2,0 8 4 ENE 10
13.01.2018 21:00:00 6,0 4,0 8 4 ENE 10
13.01.2018 20:00:00 7,0 4,0 8 4 - 10
13.01.2018 19:00:00 7,0 4,0 9 5 ENE 10
13.01.2018 18:00:00 10,0 5,0 5 3 NE 10
13.01.2018 17:00:00 12,0 5,0 11 6 N 10
13.01.2018 16:00:00 14,0 4,0 21 11 NNE 10
13.01.2018 15:00:00 15,0 6,0 16 9 N 10
13.01.2018 14:00:00 14,0 5,0 21 11 N 10
13.01.2018 13:00:00 14,0 4,0 13 7 NNE 10
13.01.2018 12:00:00 14,0 4,0 21 11 N 10
13.01.2018 11:00:00 13,0 7,0 9 5 N 10
13.01.2018 10:00:00 11,0 6,0 9 5 ENE 10
13.01.2018 09:00:00 8,0 5,0 5 3 E 10
13.01.2018 08:00:00 4,0 3,0 5 3 NE 10
13.01.2018 07:00:00 5,0 4,0 4 2 - 10
13.01.2018 06:00:00 - - - - - -
13.01.2018 05:00:00 - - - - - -
13.01.2018 04:00:00 - - - - - -
13.01.2018 03:00:00 - - - - - -
13.01.2018 02:00:00 - - - - - -
13.01.2018 01:00:00 - - - - - -
13.01.2018 00:00:00 - - - - - -
12.01.2018 23:00:00 4,0 4,0 8 4 NNE 10
12.01.2018 22:00:00 5,0 4,0 5 3 NE 10
12.01.2018 21:00:00 9,0 5,0 5 3 ENE 10
12.01.2018 20:00:00 7,0 6,0 8 4 ENE 10
12.01.2018 19:00:00 - - - - - -
12.01.2018 18:00:00 9,0 8,0 4 2 - 10
12.01.2018 17:00:00 10,0 7,0 5 3 - 10
12.01.2018 16:00:00 10,0 8,0 8 4 SSW 10
12.01.2018 15:00:00 9,0 6,0 11 6 SE 10
12.01.2018 14:00:00 10,0 6,0 9 5 SSE 10
12.01.2018 13:00:00 13,0 6,0 18 10 SW 10
12.01.2018 12:00:00 13,0 6,0 15 8 SW 10
12.01.2018 11:00:00 12,0 7,0 9 5 S 10
12.01.2018 10:00:00 12,0 7,0 5 3 WSW 10
12.01.2018 09:00:00 7,0 6,0 8 4 ESE 10
12.01.2018 08:00:00 7,0 6,0 9 5 SE 10
12.01.2018 07:00:00 7,0 6,0 5 3 N 10
12.01.2018 06:00:00 - - - - - -
12.01.2018 05:00:00 - - - - - -
12.01.2018 04:00:00 - - - - - -
12.01.2018 03:00:00 - - - - - -
12.01.2018 02:00:00 - - - - - -
12.01.2018 01:00:00 - - - - - -
12.01.2018 00:00:00 - - - - - -
11.01.2018 23:00:00 8,0 7,0 9 5 E 10
11.01.2018 22:00:00 9,0 8,0 4 2 - 10
11.01.2018 21:00:00 9,0 8,0 4 2 - 10
11.01.2018 20:00:00 10,0 9,0 8 4 S 10
11.01.2018 19:00:00 10,0 8,0 22 12 W 10
11.01.2018 18:00:00 12,0 8,0 8 4 SW 10
11.01.2018 17:00:00 12,0 9,0 9 5 WSW 10
11.01.2018 16:00:00 12,0 9,0 9 5 W 10
11.01.2018 15:00:00 13,0 8,0 18 10 W 10
11.01.2018 14:00:00 15,0 9,0 18 10 W 10
11.01.2018 13:00:00 14,0 9,0 18 10 W 10
11.01.2018 12:00:00 14,0 9,0 18 10 W 10
11.01.2018 11:00:00 13,0 7,0 4 2 - 10
11.01.2018 10:00:00 13,0 6,0 4 2 - 10
11.01.2018 09:00:00 9,0 6,0 4 2 - 10
11.01.2018 08:00:00 4,0 3,0 5 3 E 10

tt = Température de l'air
td = dewpoint
ff = Vitesse du vent
dd = Direction du vent
vv = visibility

stations d'obs. à proximité